FDX559 KMEM-KJFK
Flight info
| Callsign | FDX559 |
|---|---|
| Flight time | 1h 56m |
| Altitude | 35000 |
| Route | GOETZ7 DIYAB HITMN Q34 MAULS QUART HURTS SAWED Q108 SIE CAMRN5 |
| Aircraft | B763/H-SDE3FGHIM3RWXY/LB1 |
Departure
| Time | 2026-05-06 21:10 |
|---|---|
| Airport | Memphis International Airport (KMEM) |
Arrival
| Time | 2026-05-06 23:06 |
|---|---|
| Airport | John F. Kennedy International Airport (KJFK) |
| Time | Latitude | Longitude | Altitude | Speed | Heading |
|---|---|---|---|---|---|
| 2026-05-06 20:35 | 35.06285 | -89.97955 | 255 ft | 0 kts | 182° |
| 2026-05-06 20:51 | 35.06286 | -89.97955 | 255 ft | 0 kts | 182° |
| 2026-05-06 20:58 | 35.06295 | -89.97955 | 255 ft | 2 kts | 182° |
| 2026-05-06 20:58 | 35.06310 | -89.97954 | 255 ft | 2 kts | 182° |
| 2026-05-06 20:58 | 35.06319 | -89.97953 | 255 ft | 2 kts | 181° |
| 2026-05-06 20:59 | 35.06334 | -89.97956 | 255 ft | 2 kts | 150° |
| 2026-05-06 20:59 | 35.06345 | -89.97968 | 255 ft | 2 kts | 124° |
| 2026-05-06 20:59 | 35.06352 | -89.97984 | 254 ft | 1 kts | 99° |
| 2026-05-06 20:59 | 35.06353 | -89.97988 | 254 ft | 1 kts | 93° |
| 2026-05-06 21:01 | 35.06353 | -89.97995 | 254 ft | 0 kts | 91° |
| 2026-05-06 21:04 | 35.06353 | -89.97989 | 254 ft | 2 kts | 92° |
| 2026-05-06 21:05 | 35.06351 | -89.97952 | 255 ft | 4 kts | 93° |
| 2026-05-06 21:05 | 35.06350 | -89.97914 | 255 ft | 4 kts | 92° |
| 2026-05-06 21:05 | 35.06348 | -89.97865 | 257 ft | 9 kts | 92° |
| 2026-05-06 21:05 | 35.06329 | -89.97794 | 257 ft | 7 kts | 142° |
| 2026-05-06 21:06 | 35.06277 | -89.97784 | 258 ft | 9 kts | 179° |
| 2026-05-06 21:06 | 35.06191 | -89.97784 | 258 ft | 14 kts | 181° |
| 2026-05-06 21:06 | 35.06076 | -89.97784 | 259 ft | 17 kts | 180° |
| 2026-05-06 21:06 | 35.05965 | -89.97782 | 261 ft | 15 kts | 180° |
| 2026-05-06 21:07 | 35.05863 | -89.97782 | 263 ft | 14 kts | 179° |
| 2026-05-06 21:07 | 35.05764 | -89.97782 | 265 ft | 13 kts | 181° |
| 2026-05-06 21:07 | 35.05669 | -89.97781 | 267 ft | 13 kts | 180° |
| 2026-05-06 21:07 | 35.05575 | -89.97781 | 269 ft | 13 kts | 180° |
| 2026-05-06 21:08 | 35.05490 | -89.97782 | 271 ft | 10 kts | 179° |
| 2026-05-06 21:08 | 35.05444 | -89.97725 | 273 ft | 11 kts | 98° |
| 2026-05-06 21:08 | 35.05436 | -89.97633 | 273 ft | 7 kts | 120° |
| 2026-05-06 21:08 | 35.05399 | -89.97618 | 274 ft | 6 kts | 176° |
| 2026-05-06 21:09 | 35.05380 | -89.97617 | 275 ft | 3 kts | 179° |
| 2026-05-06 21:09 | 35.05186 | -89.97613 | 280 ft | 60 kts | 179° |
| 2026-05-06 21:09 | 35.04530 | -89.97598 | 295 ft | 129 kts | 179° |
| 2026-05-06 21:09 | 35.03392 | -89.97575 | 450 ft | 189 kts | 179° |
| 2026-05-06 21:10 | 35.02034 | -89.97533 | 1359 ft | 205 kts | 178° |
| 2026-05-06 21:10 | 35.00648 | -89.97479 | 2594 ft | 204 kts | 178° |
| 2026-05-06 21:10 | 34.99805 | -89.97443 | 3281 ft | 206 kts | 178° |
| 2026-05-06 21:10 | 34.98407 | -89.97155 | 4365 ft | 209 kts | 161° |
| 2026-05-06 21:11 | 34.97112 | -89.96562 | 5503 ft | 203 kts | 165° |
| 2026-05-06 21:11 | 34.95789 | -89.95974 | 6019 ft | 208 kts | 165° |
| 2026-05-06 21:11 | 34.94386 | -89.95300 | 6357 ft | 224 kts | 155° |
| 2026-05-06 21:11 | 34.93188 | -89.93928 | 6548 ft | 256 kts | 120° |
| 2026-05-06 21:12 | 34.92686 | -89.91782 | 6925 ft | 275 kts | 91° |
| 2026-05-06 21:12 | 34.92696 | -89.89391 | 7422 ft | 290 kts | 91° |
| 2026-05-06 21:12 | 34.92635 | -89.86873 | 7888 ft | 307 kts | 93° |
| 2026-05-06 21:12 | 34.92791 | -89.84294 | 8583 ft | 314 kts | 72° |
| 2026-05-06 21:13 | 34.93706 | -89.81892 | 9371 ft | 316 kts | 59° |
| 2026-05-06 21:13 | 34.94792 | -89.79560 | 10117 ft | 322 kts | 59° |
| 2026-05-06 21:13 | 34.95928 | -89.77130 | 10582 ft | 340 kts | 59° |
| 2026-05-06 21:13 | 34.97129 | -89.74590 | 10961 ft | 359 kts | 60° |
| 2026-05-06 21:14 | 34.98409 | -89.71853 | 11299 ft | 381 kts | 60° |
| 2026-05-06 21:14 | 34.99760 | -89.68974 | 11698 ft | 400 kts | 60° |
| 2026-05-06 21:14 | 35.00307 | -89.67809 | 11808 ft | 409 kts | 60° |
| 2026-05-06 21:14 | 35.00320 | -89.67782 | 11811 ft | 409 kts | 60° |
| 2026-05-06 21:15 | 35.01776 | -89.64683 | 12370 ft | 423 kts | 60° |
| 2026-05-06 21:15 | 35.03239 | -89.61566 | 13006 ft | 432 kts | 61° |
| 2026-05-06 21:15 | 35.04741 | -89.58363 | 13623 ft | 442 kts | 61° |
| 2026-05-06 21:15 | 35.05757 | -89.56196 | 14107 ft | 446 kts | 61° |
| 2026-05-06 21:16 | 35.07293 | -89.52910 | 14730 ft | 454 kts | 60° |
| 2026-05-06 21:16 | 35.08863 | -89.49556 | 15372 ft | 460 kts | 60° |
| 2026-05-06 21:16 | 35.10455 | -89.46147 | 15962 ft | 469 kts | 60° |
| 2026-05-06 21:16 | 35.12083 | -89.42661 | 16535 ft | 477 kts | 60° |
| 2026-05-06 21:17 | 35.13740 | -89.39112 | 17187 ft | 482 kts | 59° |
| 2026-05-06 21:17 | 35.15410 | -89.35524 | 17710 ft | 491 kts | 58° |
| 2026-05-06 21:17 | 35.17104 | -89.31892 | 18354 ft | 495 kts | 59° |
| 2026-05-06 21:17 | 35.18797 | -89.28249 | 19069 ft | 497 kts | 58° |
| 2026-05-06 21:18 | 35.20493 | -89.24568 | 19674 ft | 502 kts | 61° |
| 2026-05-06 21:18 | 35.21907 | -89.20654 | 20302 ft | 507 kts | 71° |
| 2026-05-06 21:18 | 35.23003 | -89.16544 | 20827 ft | 512 kts | 70° |
| 2026-05-06 21:18 | 35.24388 | -89.12522 | 21361 ft | 515 kts | 62° |
| 2026-05-06 21:19 | 35.25918 | -89.08578 | 21936 ft | 518 kts | 63° |
| 2026-05-06 21:19 | 35.27415 | -89.04598 | 22357 ft | 523 kts | 63° |
| 2026-05-06 21:19 | 35.28947 | -89.00555 | 22997 ft | 523 kts | 63° |
| 2026-05-06 21:19 | 35.30484 | -88.96503 | 23350 ft | 530 kts | 63° |
| 2026-05-06 21:20 | 35.32024 | -88.92416 | 23858 ft | 532 kts | 63° |
| 2026-05-06 21:20 | 35.33583 | -88.88296 | 24274 ft | 537 kts | 63° |
| 2026-05-06 21:20 | 35.35151 | -88.84129 | 24736 ft | 540 kts | 63° |
| 2026-05-06 21:20 | 35.36723 | -88.79978 | 25098 ft | 545 kts | 64° |
| 2026-05-06 21:21 | 35.38300 | -88.75752 | 25484 ft | 549 kts | 63° |
| 2026-05-06 21:21 | 35.39920 | -88.71461 | 25914 ft | 552 kts | 63° |
| 2026-05-06 21:21 | 35.41518 | -88.67189 | 26368 ft | 554 kts | 62° |
| 2026-05-06 21:21 | 35.43111 | -88.62937 | 26670 ft | 560 kts | 63° |
| 2026-05-06 21:22 | 35.44743 | -88.58576 | 27074 ft | 562 kts | 63° |
| 2026-05-06 21:22 | 35.46368 | -88.54221 | 27398 ft | 566 kts | 63° |
| 2026-05-06 21:22 | 35.48018 | -88.49809 | 27739 ft | 569 kts | 63° |
| 2026-05-06 21:22 | 35.49656 | -88.45398 | 28150 ft | 572 kts | 64° |
| 2026-05-06 21:23 | 35.51302 | -88.40984 | 28319 ft | 578 kts | 64° |
| 2026-05-06 21:23 | 35.52969 | -88.36488 | 28917 ft | 575 kts | 63° |
| 2026-05-06 21:23 | 35.54610 | -88.32066 | 29370 ft | 575 kts | 65° |
| 2026-05-06 21:23 | 35.56264 | -88.27601 | 29778 ft | 575 kts | 64° |
| 2026-05-06 21:24 | 35.57922 | -88.23119 | 30115 ft | 577 kts | 64° |
| 2026-05-06 21:24 | 35.59561 | -88.18679 | 30464 ft | 578 kts | 64° |
| 2026-05-06 21:24 | 35.61232 | -88.14156 | 30801 ft | 580 kts | 64° |
| 2026-05-06 21:24 | 35.62880 | -88.09667 | 31182 ft | 580 kts | 63° |
| 2026-05-06 21:25 | 35.64533 | -88.05183 | 31551 ft | 581 kts | 63° |
| 2026-05-06 21:25 | 35.66198 | -88.00647 | 31936 ft | 581 kts | 63° |
| 2026-05-06 21:25 | 35.67855 | -87.96124 | 32127 ft | 585 kts | 63° |
| 2026-05-06 21:25 | 35.69533 | -87.91550 | 32528 ft | 584 kts | 63° |
| 2026-05-06 21:26 | 35.71187 | -87.87023 | 32870 ft | 584 kts | 64° |
| 2026-05-06 21:26 | 35.72841 | -87.82487 | 33156 ft | 586 kts | 63° |
| 2026-05-06 21:26 | 35.74511 | -87.77914 | 33545 ft | 585 kts | 62° |
| 2026-05-06 21:26 | 35.76156 | -87.73390 | 33835 ft | 587 kts | 63° |
| 2026-05-06 21:27 | 35.77824 | -87.68804 | 34233 ft | 585 kts | 62° |
| 2026-05-06 21:27 | 35.79475 | -87.64257 | 34607 ft | 585 kts | 62° |
| 2026-05-06 21:27 | 35.81123 | -87.59704 | 35013 ft | 581 kts | 62° |
| 2026-05-06 21:28 | 35.84419 | -87.50599 | 35008 ft | 582 kts | 62° |
| 2026-05-06 21:28 | 35.87684 | -87.41549 | 35001 ft | 580 kts | 63° |
| 2026-05-06 21:29 | 35.90961 | -87.32442 | 34982 ft | 583 kts | 63° |
| 2026-05-06 21:29 | 35.94219 | -87.23354 | 34979 ft | 583 kts | 63° |
| 2026-05-06 21:30 | 35.97475 | -87.14243 | 34984 ft | 582 kts | 63° |
| 2026-05-06 21:30 | 36.00741 | -87.05081 | 34987 ft | 584 kts | 63° |
| 2026-05-06 21:31 | 36.03989 | -86.95943 | 35000 ft | 584 kts | 63° |
| 2026-05-06 21:31 | 36.07225 | -86.86800 | 35000 ft | 583 kts | 62° |
| 2026-05-06 21:32 | 36.10477 | -86.77602 | 35000 ft | 582 kts | 63° |
| 2026-05-06 21:32 | 36.15221 | -86.63808 | 35010 ft | 585 kts | 64° |
| 2026-05-06 21:33 | 36.18227 | -86.54520 | 35014 ft | 584 kts | 64° |
| 2026-05-06 21:33 | 36.21238 | -86.45214 | 35010 ft | 584 kts | 64° |
| 2026-05-06 21:34 | 36.24242 | -86.35908 | 35018 ft | 583 kts | 65° |
| 2026-05-06 21:34 | 36.27251 | -86.26553 | 34996 ft | 585 kts | 65° |
| 2026-05-06 21:35 | 36.30234 | -86.17243 | 34983 ft | 586 kts | 65° |
| 2026-05-06 21:35 | 36.33222 | -86.07891 | 34976 ft | 584 kts | 65° |
| 2026-05-06 21:36 | 36.36209 | -85.98515 | 34984 ft | 584 kts | 65° |
| 2026-05-06 21:36 | 36.39169 | -85.89192 | 34981 ft | 585 kts | 65° |
| 2026-05-06 21:37 | 36.42134 | -85.79828 | 34979 ft | 584 kts | 65° |
| 2026-05-06 21:37 | 36.45096 | -85.70435 | 34979 ft | 585 kts | 65° |
| 2026-05-06 21:38 | 36.48033 | -85.61090 | 34973 ft | 584 kts | 65° |
| 2026-05-06 21:38 | 36.50984 | -85.51682 | 34975 ft | 583 kts | 65° |
| 2026-05-06 21:39 | 36.53901 | -85.42348 | 34975 ft | 584 kts | 65° |
| 2026-05-06 21:39 | 36.56829 | -85.32942 | 34961 ft | 583 kts | 66° |
| 2026-05-06 21:40 | 36.59739 | -85.23573 | 34958 ft | 586 kts | 65° |
| 2026-05-06 21:40 | 36.62669 | -85.14095 | 34961 ft | 586 kts | 66° |
| 2026-05-06 21:41 | 36.65560 | -85.04705 | 34961 ft | 584 kts | 65° |
| 2026-05-06 21:41 | 36.68460 | -84.95282 | 34964 ft | 587 kts | 66° |
| 2026-05-06 21:42 | 36.71367 | -84.85768 | 34982 ft | 587 kts | 65° |
| 2026-05-06 21:42 | 36.74252 | -84.76320 | 34982 ft | 584 kts | 65° |
| 2026-05-06 21:43 | 36.77122 | -84.66885 | 34980 ft | 585 kts | 66° |
| 2026-05-06 21:43 | 36.79999 | -84.57393 | 34965 ft | 587 kts | 65° |
| 2026-05-06 21:44 | 36.82845 | -84.47968 | 34973 ft | 584 kts | 65° |
| 2026-05-06 21:44 | 36.85710 | -84.38447 | 34982 ft | 586 kts | 65° |
| 2026-05-06 21:45 | 36.88547 | -84.28999 | 34965 ft | 586 kts | 66° |
| 2026-05-06 21:45 | 36.91395 | -84.19469 | 34968 ft | 585 kts | 66° |
| 2026-05-06 21:46 | 36.94221 | -84.09986 | 34961 ft | 587 kts | 66° |
| 2026-05-06 21:46 | 36.97056 | -84.00440 | 34965 ft | 588 kts | 66° |
| 2026-05-06 21:47 | 36.99888 | -83.90854 | 34949 ft | 587 kts | 65° |
| 2026-05-06 21:47 | 37.02701 | -83.81323 | 34946 ft | 585 kts | 66° |
| 2026-05-06 21:48 | 37.05494 | -83.71820 | 34950 ft | 587 kts | 65° |
| 2026-05-06 21:48 | 37.08285 | -83.62282 | 34952 ft | 583 kts | 65° |
| 2026-05-06 21:49 | 37.11053 | -83.52800 | 34950 ft | 582 kts | 66° |
| 2026-05-06 21:49 | 37.13819 | -83.43283 | 34950 ft | 584 kts | 65° |
| 2026-05-06 21:50 | 37.16586 | -83.33748 | 34944 ft | 581 kts | 67° |
| 2026-05-06 21:50 | 37.19325 | -83.24259 | 34936 ft | 584 kts | 66° |
| 2026-05-06 21:51 | 37.22083 | -83.14668 | 34937 ft | 582 kts | 66° |
| 2026-05-06 21:51 | 37.24812 | -83.05155 | 34923 ft | 585 kts | 66° |
| 2026-05-06 21:52 | 37.27572 | -82.95500 | 34925 ft | 594 kts | 67° |
| 2026-05-06 21:52 | 37.30355 | -82.85720 | 34925 ft | 595 kts | 66° |
| 2026-05-06 21:53 | 37.33111 | -82.76002 | 34929 ft | 592 kts | 66° |
| 2026-05-06 21:53 | 37.35845 | -82.66325 | 34935 ft | 592 kts | 66° |
| 2026-05-06 21:54 | 37.38581 | -82.56606 | 34936 ft | 591 kts | 66° |
| 2026-05-06 21:54 | 37.41316 | -82.46871 | 34941 ft | 593 kts | 67° |
| 2026-05-06 21:55 | 37.44043 | -82.37104 | 34935 ft | 592 kts | 66° |
| 2026-05-06 21:55 | 37.46756 | -82.27365 | 34916 ft | 591 kts | 67° |
| 2026-05-06 21:56 | 37.49463 | -82.17610 | 34921 ft | 593 kts | 67° |
| 2026-05-06 21:56 | 37.52159 | -82.07860 | 34926 ft | 592 kts | 67° |
| 2026-05-06 21:57 | 37.54853 | -81.98082 | 34930 ft | 593 kts | 67° |
| 2026-05-06 21:57 | 37.57537 | -81.88302 | 34927 ft | 591 kts | 67° |
| 2026-05-06 21:58 | 37.60206 | -81.78530 | 34934 ft | 592 kts | 66° |
| 2026-05-06 21:58 | 37.62875 | -81.68732 | 34937 ft | 590 kts | 66° |
| 2026-05-06 21:59 | 37.65509 | -81.59022 | 34935 ft | 589 kts | 67° |
| 2026-05-06 21:59 | 37.68150 | -81.49228 | 34941 ft | 592 kts | 66° |
| 2026-05-06 22:00 | 37.70777 | -81.39493 | 34947 ft | 589 kts | 67° |
| 2026-05-06 22:00 | 37.73407 | -81.29687 | 34916 ft | 588 kts | 68° |
| 2026-05-06 22:01 | 37.76008 | -81.19953 | 34936 ft | 588 kts | 67° |
| 2026-05-06 22:01 | 37.78070 | -81.09911 | 34965 ft | 595 kts | 82° |
| 2026-05-06 22:02 | 37.78866 | -80.99528 | 34949 ft | 597 kts | 84° |
| 2026-05-06 22:02 | 37.79584 | -80.89136 | 34940 ft | 596 kts | 85° |
| 2026-05-06 22:03 | 37.80273 | -80.78767 | 34938 ft | 594 kts | 84° |
| 2026-05-06 22:03 | 37.80954 | -80.68348 | 34939 ft | 595 kts | 85° |
| 2026-05-06 22:04 | 37.81620 | -80.57937 | 34952 ft | 595 kts | 84° |
| 2026-05-06 22:04 | 37.82271 | -80.47628 | 34961 ft | 592 kts | 84° |
| 2026-05-06 22:05 | 37.82916 | -80.37259 | 34960 ft | 592 kts | 84° |
| 2026-05-06 22:05 | 37.83554 | -80.26922 | 34933 ft | 592 kts | 85° |
| 2026-05-06 22:06 | 37.84179 | -80.16559 | 34932 ft | 591 kts | 85° |
| 2026-05-06 22:06 | 37.84793 | -80.06254 | 34922 ft | 591 kts | 85° |
| 2026-05-06 22:07 | 37.85399 | -79.95921 | 34921 ft | 589 kts | 85° |
| 2026-05-06 22:07 | 37.85992 | -79.85673 | 34925 ft | 588 kts | 84° |
| 2026-05-06 22:08 | 37.86579 | -79.75390 | 34920 ft | 588 kts | 85° |
| 2026-05-06 22:08 | 37.86979 | -79.65091 | 34905 ft | 587 kts | 86° |
| 2026-05-06 22:09 | 37.87329 | -79.54762 | 34900 ft | 588 kts | 87° |
| 2026-05-06 22:09 | 37.87669 | -79.44491 | 34900 ft | 588 kts | 86° |
| 2026-05-06 22:10 | 37.87681 | -79.34203 | 34917 ft | 584 kts | 98° |
| 2026-05-06 22:10 | 37.86037 | -79.24200 | 34897 ft | 582 kts | 107° |
| 2026-05-06 22:11 | 37.83989 | -79.14298 | 34894 ft | 583 kts | 108° |
| 2026-05-06 22:11 | 37.81897 | -79.04462 | 34886 ft | 582 kts | 108° |
| 2026-05-06 22:12 | 37.79785 | -78.94659 | 34864 ft | 578 kts | 108° |
| 2026-05-06 22:12 | 37.77660 | -78.84873 | 34872 ft | 580 kts | 108° |
| 2026-05-06 22:13 | 37.75518 | -78.75043 | 34876 ft | 578 kts | 108° |
| 2026-05-06 22:13 | 37.73389 | -78.65324 | 34874 ft | 578 kts | 108° |
| 2026-05-06 22:14 | 37.71236 | -78.55540 | 34872 ft | 578 kts | 108° |
| 2026-05-06 22:14 | 37.69101 | -78.45876 | 34876 ft | 575 kts | 108° |
| 2026-05-06 22:15 | 37.66946 | -78.36165 | 34879 ft | 577 kts | 108° |
| 2026-05-06 22:15 | 37.64769 | -78.26399 | 34864 ft | 576 kts | 108° |
| 2026-05-06 22:16 | 37.62610 | -78.16750 | 34865 ft | 576 kts | 108° |
| 2026-05-06 22:16 | 37.60430 | -78.07053 | 34865 ft | 575 kts | 108° |
| 2026-05-06 22:17 | 37.58250 | -77.97392 | 34871 ft | 575 kts | 109° |
| 2026-05-06 22:17 | 37.56076 | -77.87795 | 34869 ft | 572 kts | 108° |
| 2026-05-06 22:18 | 37.53880 | -77.78147 | 34870 ft | 573 kts | 107° |
| 2026-05-06 22:18 | 37.52145 | -77.68385 | 34895 ft | 571 kts | 96° |
| 2026-05-06 22:19 | 37.51344 | -77.58451 | 34892 ft | 573 kts | 95° |
| 2026-05-06 22:19 | 37.50552 | -77.48510 | 34890 ft | 574 kts | 94° |
| 2026-05-06 22:20 | 37.50927 | -77.38558 | 34898 ft | 565 kts | 75° |
| 2026-05-06 22:20 | 37.53318 | -77.29357 | 34880 ft | 552 kts | 56° |
| 2026-05-06 22:21 | 37.57347 | -77.21307 | 34894 ft | 535 kts | 41° |
| 2026-05-06 22:21 | 37.61731 | -77.13726 | 34880 ft | 539 kts | 46° |
| 2026-05-06 22:22 | 37.66089 | -77.06039 | 34873 ft | 540 kts | 46° |
| 2026-05-06 22:22 | 37.70488 | -76.98325 | 34862 ft | 541 kts | 46° |
| 2026-05-06 22:23 | 37.74865 | -76.90638 | 34859 ft | 540 kts | 46° |
| 2026-05-06 22:23 | 37.79244 | -76.82947 | 34876 ft | 542 kts | 46° |
| 2026-05-06 22:24 | 37.83608 | -76.75256 | 34874 ft | 540 kts | 46° |
| 2026-05-06 22:24 | 37.87974 | -76.67547 | 34886 ft | 540 kts | 46° |
| 2026-05-06 22:25 | 37.92334 | -76.59844 | 34868 ft | 540 kts | 46° |
| 2026-05-06 22:25 | 37.96720 | -76.52080 | 34856 ft | 542 kts | 46° |
| 2026-05-06 22:26 | 38.01080 | -76.44327 | 34861 ft | 541 kts | 46° |
| 2026-05-06 22:26 | 38.05434 | -76.36570 | 34879 ft | 541 kts | 47° |
| 2026-05-06 22:27 | 38.09779 | -76.28808 | 34859 ft | 543 kts | 47° |
| 2026-05-06 22:27 | 38.14139 | -76.20994 | 34859 ft | 539 kts | 47° |
| 2026-05-06 22:28 | 38.18477 | -76.13215 | 34870 ft | 543 kts | 47° |
| 2026-05-06 22:28 | 38.22814 | -76.05410 | 34860 ft | 544 kts | 47° |
| 2026-05-06 22:29 | 38.27162 | -75.97562 | 34858 ft | 543 kts | 47° |
| 2026-05-06 22:29 | 38.29354 | -75.93605 | 34743 ft | 545 kts | 47° |
| 2026-05-06 22:29 | 38.31527 | -75.89673 | 34488 ft | 545 kts | 47° |
| 2026-05-06 22:30 | 38.33690 | -75.85757 | 34266 ft | 544 kts | 47° |
| 2026-05-06 22:30 | 38.35880 | -75.81789 | 34047 ft | 547 kts | 47° |
| 2026-05-06 22:30 | 38.38062 | -75.77827 | 33811 ft | 549 kts | 48° |
| 2026-05-06 22:30 | 38.40260 | -75.73834 | 33544 ft | 554 kts | 47° |
| 2026-05-06 22:31 | 38.42437 | -75.69869 | 33289 ft | 551 kts | 48° |
| 2026-05-06 22:31 | 38.44630 | -75.65871 | 33043 ft | 549 kts | 47° |
| 2026-05-06 22:31 | 38.45976 | -75.63410 | 32889 ft | 549 kts | 48° |
| 2026-05-06 22:31 | 38.46333 | -75.62759 | 32847 ft | 549 kts | 48° |
| 2026-05-06 22:32 | 38.47571 | -75.60502 | 32711 ft | 550 kts | 48° |
| 2026-05-06 22:32 | 38.49759 | -75.56508 | 32461 ft | 541 kts | 49° |
| 2026-05-06 22:32 | 38.51905 | -75.52596 | 32213 ft | 541 kts | 49° |
| 2026-05-06 22:32 | 38.54058 | -75.48657 | 31989 ft | 545 kts | 48° |
| 2026-05-06 22:33 | 38.55816 | -75.45422 | 31796 ft | 537 kts | 48° |
| 2026-05-06 22:33 | 38.57930 | -75.41533 | 31550 ft | 536 kts | 48° |
| 2026-05-06 22:33 | 38.59387 | -75.38845 | 31394 ft | 542 kts | 48° |
| 2026-05-06 22:33 | 38.60390 | -75.37001 | 31288 ft | 547 kts | 49° |
| 2026-05-06 22:34 | 38.62574 | -75.32984 | 31044 ft | 557 kts | 50° |
| 2026-05-06 22:34 | 38.64778 | -75.28919 | 30762 ft | 555 kts | 50° |
| 2026-05-06 22:34 | 38.66204 | -75.26286 | 30305 ft | 556 kts | 50° |
| 2026-05-06 22:34 | 38.68371 | -75.22321 | 30164 ft | 540 kts | 47° |
| 2026-05-06 22:35 | 38.70770 | -75.18677 | 29583 ft | 528 kts | 38° |
| 2026-05-06 22:35 | 38.73455 | -75.15541 | 28397 ft | 527 kts | 29° |
| 2026-05-06 22:35 | 38.76344 | -75.12758 | 27899 ft | 517 kts | 29° |
| 2026-05-06 22:35 | 38.79154 | -75.10001 | 27252 ft | 513 kts | 29° |
| 2026-05-06 22:36 | 38.81984 | -75.07234 | 26466 ft | 512 kts | 30° |
| 2026-05-06 22:36 | 38.84793 | -75.04467 | 26151 ft | 502 kts | 30° |
| 2026-05-06 22:36 | 38.87584 | -75.01733 | 25277 ft | 506 kts | 30° |
| 2026-05-06 22:36 | 38.90317 | -74.99045 | 24836 ft | 498 kts | 30° |
| 2026-05-06 22:37 | 38.93046 | -74.96355 | 24559 ft | 487 kts | 30° |
| 2026-05-06 22:37 | 38.95715 | -74.93725 | 24316 ft | 487 kts | 29° |
| 2026-05-06 22:37 | 38.98405 | -74.91074 | 24081 ft | 491 kts | 30° |
| 2026-05-06 22:37 | 39.01146 | -74.88372 | 23850 ft | 492 kts | 30° |
| 2026-05-06 22:38 | 39.03827 | -74.85721 | 23598 ft | 488 kts | 30° |
| 2026-05-06 22:38 | 39.06504 | -74.83071 | 23371 ft | 488 kts | 30° |
| 2026-05-06 22:38 | 39.09211 | -74.80387 | 23131 ft | 484 kts | 30° |
| 2026-05-06 22:38 | 39.11819 | -74.77625 | 22911 ft | 486 kts | 33° |
| 2026-05-06 22:39 | 39.14373 | -74.74867 | 22678 ft | 484 kts | 32° |
| 2026-05-06 22:39 | 39.16972 | -74.72056 | 22440 ft | 483 kts | 32° |
| 2026-05-06 22:39 | 39.19523 | -74.69296 | 22204 ft | 480 kts | 32° |
| 2026-05-06 22:39 | 39.22063 | -74.66549 | 21955 ft | 478 kts | 33° |
| 2026-05-06 22:40 | 39.24607 | -74.63792 | 21729 ft | 473 kts | 33° |
| 2026-05-06 22:40 | 39.27077 | -74.61109 | 21486 ft | 462 kts | 32° |
| 2026-05-06 22:40 | 39.29512 | -74.58465 | 21200 ft | 449 kts | 32° |
| 2026-05-06 22:40 | 39.31840 | -74.55933 | 20918 ft | 436 kts | 32° |
| 2026-05-06 22:41 | 39.36340 | -74.51035 | 20860 ft | 406 kts | 31° |
| 2026-05-06 22:41 | 39.38435 | -74.48753 | 20858 ft | 392 kts | 31° |
| 2026-05-06 22:41 | 39.40522 | -74.46485 | 20654 ft | 387 kts | 31° |
| 2026-05-06 22:42 | 39.42546 | -74.44282 | 20482 ft | 385 kts | 31° |
| 2026-05-06 22:42 | 39.44614 | -74.42032 | 20316 ft | 386 kts | 31° |
| 2026-05-06 22:42 | 39.46652 | -74.39808 | 20121 ft | 385 kts | 31° |
| 2026-05-06 22:42 | 39.48703 | -74.37569 | 20052 ft | 385 kts | 31° |
| 2026-05-06 22:43 | 39.50760 | -74.35318 | 19980 ft | 387 kts | 31° |
| 2026-05-06 22:43 | 39.52810 | -74.33075 | 19873 ft | 385 kts | 32° |
| 2026-05-06 22:43 | 39.54894 | -74.30803 | 19768 ft | 405 kts | 33° |
| 2026-05-06 22:43 | 39.57052 | -74.28431 | 19756 ft | 403 kts | 33° |
| 2026-05-06 22:44 | 39.59142 | -74.26128 | 19723 ft | 391 kts | 32° |
| 2026-05-06 22:44 | 39.61203 | -74.23865 | 19268 ft | 395 kts | 33° |
| 2026-05-06 22:44 | 39.63315 | -74.21548 | 18892 ft | 392 kts | 33° |
| 2026-05-06 22:44 | 39.65347 | -74.19308 | 18587 ft | 388 kts | 33° |
| 2026-05-06 22:45 | 39.67414 | -74.17039 | 17921 ft | 389 kts | 34° |
| 2026-05-06 22:45 | 39.69431 | -74.14808 | 17751 ft | 374 kts | 33° |
| 2026-05-06 22:45 | 39.71395 | -74.12640 | 17365 ft | 365 kts | 33° |
| 2026-05-06 22:45 | 39.73307 | -74.10534 | 16763 ft | 365 kts | 33° |
| 2026-05-06 22:46 | 39.75239 | -74.08402 | 16295 ft | 362 kts | 33° |
| 2026-05-06 22:46 | 39.77142 | -74.06300 | 15847 ft | 360 kts | 34° |
| 2026-05-06 22:46 | 39.79049 | -74.04194 | 15377 ft | 359 kts | 34° |
| 2026-05-06 22:46 | 39.80936 | -74.02103 | 14993 ft | 355 kts | 34° |
| 2026-05-06 22:47 | 39.82814 | -74.00024 | 14481 ft | 353 kts | 35° |
| 2026-05-06 22:47 | 39.84761 | -73.98155 | 13884 ft | 346 kts | 22° |
| 2026-05-06 22:47 | 39.86876 | -73.96661 | 13332 ft | 346 kts | 22° |
| 2026-05-06 22:47 | 39.88981 | -73.95161 | 13056 ft | 342 kts | 22° |
| 2026-05-06 22:48 | 39.91049 | -73.93691 | 12753 ft | 339 kts | 22° |
| 2026-05-06 22:48 | 39.93103 | -73.92235 | 12446 ft | 336 kts | 22° |
| 2026-05-06 22:48 | 39.95170 | -73.90770 | 12084 ft | 336 kts | 22° |
| 2026-05-06 22:48 | 39.97208 | -73.89326 | 11735 ft | 334 kts | 22° |
| 2026-05-06 22:49 | 39.99236 | -73.87884 | 11398 ft | 333 kts | 22° |
| 2026-05-06 22:49 | 40.01272 | -73.86442 | 11090 ft | 331 kts | 22° |
| 2026-05-06 22:49 | 40.03252 | -73.84977 | 10985 ft | 324 kts | 25° |
| 2026-05-06 22:49 | 40.05164 | -73.83459 | 10999 ft | 324 kts | 25° |
| 2026-05-06 22:50 | 40.07131 | -73.81894 | 11002 ft | 334 kts | 25° |
| 2026-05-06 22:50 | 40.09123 | -73.80376 | 11021 ft | 335 kts | 24° |
| 2026-05-06 22:50 | 40.11185 | -73.78918 | 10893 ft | 333 kts | 21° |
| 2026-05-06 22:50 | 40.13252 | -73.77602 | 10581 ft | 339 kts | 19° |
| 2026-05-06 22:51 | 40.15411 | -73.76297 | 10482 ft | 336 kts | 20° |
| 2026-05-06 22:51 | 40.17484 | -73.74915 | 10112 ft | 336 kts | 21° |
| 2026-05-06 22:51 | 40.19545 | -73.73522 | 9744 ft | 335 kts | 22° |
| 2026-05-06 22:51 | 40.21599 | -73.72124 | 9505 ft | 329 kts | 22° |
| 2026-05-06 22:52 | 40.23613 | -73.70750 | 9261 ft | 323 kts | 22° |
| 2026-05-06 22:52 | 40.25583 | -73.69402 | 9006 ft | 319 kts | 22° |
| 2026-05-06 22:52 | 40.27536 | -73.68062 | 8757 ft | 316 kts | 22° |
| 2026-05-06 22:52 | 40.29466 | -73.66733 | 8546 ft | 313 kts | 22° |
| 2026-05-06 22:53 | 40.31413 | -73.65391 | 8371 ft | 312 kts | 22° |
| 2026-05-06 22:53 | 40.33329 | -73.64067 | 8200 ft | 311 kts | 22° |
| 2026-05-06 22:53 | 40.35229 | -73.62754 | 8038 ft | 311 kts | 22° |
| 2026-05-06 22:53 | 40.37145 | -73.61429 | 7865 ft | 310 kts | 22° |
| 2026-05-06 22:54 | 40.39033 | -73.60120 | 7693 ft | 308 kts | 22° |
| 2026-05-06 22:54 | 40.40938 | -73.58798 | 7522 ft | 307 kts | 23° |
| 2026-05-06 22:54 | 40.42817 | -73.57492 | 7354 ft | 306 kts | 22° |
| 2026-05-06 22:54 | 40.44704 | -73.56179 | 7194 ft | 305 kts | 22° |
| 2026-05-06 22:55 | 40.46566 | -73.54881 | 7010 ft | 304 kts | 22° |
| 2026-05-06 22:55 | 40.48410 | -73.53594 | 6771 ft | 302 kts | 22° |
| 2026-05-06 22:55 | 40.50282 | -73.52419 | 6521 ft | 294 kts | 9° |
| 2026-05-06 22:55 | 40.52279 | -73.52040 | 6339 ft | 285 kts | 357° |
| 2026-05-06 22:56 | 40.54264 | -73.51874 | 6140 ft | 285 kts | 357° |
| 2026-05-06 22:56 | 40.56233 | -73.51717 | 5946 ft | 283 kts | 357° |
| 2026-05-06 22:56 | 40.58189 | -73.51556 | 5747 ft | 280 kts | 357° |
| 2026-05-06 22:56 | 40.60090 | -73.51385 | 5719 ft | 268 kts | 357° |
| 2026-05-06 22:57 | 40.61913 | -73.51222 | 5703 ft | 255 kts | 355° |
| 2026-05-06 22:57 | 40.63664 | -73.51122 | 5682 ft | 244 kts | 356° |
| 2026-05-06 22:57 | 40.65324 | -73.50946 | 5545 ft | 239 kts | 357° |
| 2026-05-06 22:57 | 40.66996 | -73.50778 | 5268 ft | 240 kts | 354° |
| 2026-05-06 22:58 | 40.68635 | -73.50743 | 5083 ft | 236 kts | 352° |
| 2026-05-06 22:58 | 40.70296 | -73.50672 | 4863 ft | 236 kts | 357° |
| 2026-05-06 22:58 | 40.71941 | -73.50511 | 4588 ft | 238 kts | 357° |
| 2026-05-06 22:58 | 40.73581 | -73.50334 | 4419 ft | 235 kts | 357° |
| 2026-05-06 22:59 | 40.75208 | -73.50160 | 4291 ft | 234 kts | 357° |
| 2026-05-06 22:59 | 40.76831 | -73.49997 | 4171 ft | 235 kts | 357° |
| 2026-05-06 22:59 | 40.78459 | -73.49831 | 4055 ft | 236 kts | 356° |
| 2026-05-06 22:59 | 40.80065 | -73.50002 | 3951 ft | 222 kts | 329° |
| 2026-05-06 23:00 | 40.81211 | -73.51157 | 3914 ft | 205 kts | 295° |
| 2026-05-06 23:00 | 40.81616 | -73.52899 | 3813 ft | 199 kts | 270° |
| 2026-05-06 23:00 | 40.81638 | -73.54733 | 3648 ft | 197 kts | 264° |
| 2026-05-06 23:00 | 40.81241 | -73.56413 | 3495 ft | 194 kts | 239° |
| 2026-05-06 23:01 | 40.80494 | -73.57870 | 3423 ft | 188 kts | 236° |
| 2026-05-06 23:01 | 40.79762 | -73.59216 | 3364 ft | 175 kts | 236° |
| 2026-05-06 23:01 | 40.79062 | -73.60487 | 3211 ft | 167 kts | 236° |
| 2026-05-06 23:01 | 40.78392 | -73.61706 | 3069 ft | 161 kts | 236° |
| 2026-05-06 23:02 | 40.77744 | -73.62885 | 2942 ft | 159 kts | 236° |
| 2026-05-06 23:02 | 40.77085 | -73.64092 | 2826 ft | 162 kts | 236° |
| 2026-05-06 23:02 | 40.76434 | -73.65299 | 2707 ft | 164 kts | 236° |
| 2026-05-06 23:02 | 40.75773 | -73.66517 | 2525 ft | 164 kts | 230° |
| 2026-05-06 23:03 | 40.74843 | -73.67410 | 2341 ft | 166 kts | 213° |
| 2026-05-06 23:03 | 40.73842 | -73.68187 | 2122 ft | 166 kts | 214° |
| 2026-05-06 23:03 | 40.72867 | -73.68964 | 1916 ft | 164 kts | 214° |
| 2026-05-06 23:03 | 40.71875 | -73.69744 | 1703 ft | 163 kts | 213° |
| 2026-05-06 23:04 | 40.70908 | -73.70503 | 1484 ft | 161 kts | 213° |
| 2026-05-06 23:04 | 40.69977 | -73.71231 | 1246 ft | 147 kts | 213° |
| 2026-05-06 23:04 | 40.69127 | -73.71895 | 1103 ft | 138 kts | 213° |
| 2026-05-06 23:04 | 40.68331 | -73.72517 | 954 ft | 134 kts | 212° |
| 2026-05-06 23:05 | 40.67530 | -73.73144 | 755 ft | 131 kts | 212° |
| 2026-05-06 23:05 | 40.66751 | -73.73753 | 563 ft | 131 kts | 212° |
| 2026-05-06 23:05 | 40.65962 | -73.74369 | 381 ft | 133 kts | 211° |
| 2026-05-06 23:05 | 40.65160 | -73.74994 | 204 ft | 134 kts | 211° |
| 2026-05-06 23:06 | 40.64349 | -73.75622 | 46 ft | 135 kts | 210° |
| 2026-05-06 23:06 | 40.63624 | -73.76194 | 25 ft | 91 kts | 210° |
| 2026-05-06 23:06 | 40.63324 | -73.76439 | 25 ft | 26 kts | 227° |
| 2026-05-06 23:06 | 40.63246 | -73.76606 | 25 ft | 16 kts | 250° |
| 2026-05-06 23:07 | 40.63242 | -73.76704 | 25 ft | 10 kts | 282° |
| 2026-05-06 23:07 | 40.63274 | -73.76798 | 25 ft | 8 kts | 301° |
| 2026-05-06 23:07 | 40.63303 | -73.76860 | 25 ft | 10 kts | 301° |
| 2026-05-06 23:07 | 40.63357 | -73.76979 | 25 ft | 16 kts | 300° |
| 2026-05-06 23:08 | 40.63414 | -73.77106 | 25 ft | 16 kts | 300° |
| 2026-05-06 23:08 | 40.63461 | -73.77201 | 25 ft | 7 kts | 320° |
| 2026-05-06 23:08 | 40.63515 | -73.77196 | 25 ft | 11 kts | 25° |
| 2026-05-06 23:08 | 40.63602 | -73.77129 | 25 ft | 15 kts | 31° |
| 2026-05-06 23:09 | 40.63692 | -73.77058 | 25 ft | 14 kts | 30° |
| 2026-05-06 23:09 | 40.63777 | -73.76991 | 25 ft | 13 kts | 31° |
| 2026-05-06 23:09 | 40.63855 | -73.76931 | 25 ft | 12 kts | 31° |
| 2026-05-06 23:09 | 40.63926 | -73.76875 | 25 ft | 11 kts | 30° |
| 2026-05-06 23:10 | 40.63992 | -73.76824 | 25 ft | 10 kts | 31° |
| 2026-05-06 23:10 | 40.64051 | -73.76778 | 25 ft | 9 kts | 30° |
| 2026-05-06 23:10 | 40.64111 | -73.76731 | 25 ft | 11 kts | 30° |
| 2026-05-06 23:10 | 40.64181 | -73.76676 | 25 ft | 11 kts | 31° |
| 2026-05-06 23:11 | 40.64246 | -73.76625 | 25 ft | 10 kts | 30° |
| 2026-05-06 23:11 | 40.64305 | -73.76579 | 25 ft | 9 kts | 31° |
| 2026-05-06 23:11 | 40.64358 | -73.76537 | 25 ft | 8 kts | 31° |
| 2026-05-06 23:11 | 40.64408 | -73.76498 | 25 ft | 7 kts | 30° |
| 2026-05-06 23:12 | 40.64454 | -73.76463 | 25 ft | 7 kts | 30° |
| 2026-05-06 23:12 | 40.64504 | -73.76424 | 25 ft | 10 kts | 32° |
| 2026-05-06 23:12 | 40.64572 | -73.76396 | 25 ft | 7 kts | 342° |
| 2026-05-06 23:12 | 40.64604 | -73.76437 | 25 ft | 7 kts | 302° |
| 2026-05-06 23:13 | 40.64646 | -73.76531 | 25 ft | 15 kts | 300° |
| 2026-05-06 23:13 | 40.64716 | -73.76687 | 25 ft | 24 kts | 300° |
| 2026-05-06 23:13 | 40.64820 | -73.76916 | 25 ft | 32 kts | 300° |
| 2026-05-06 23:13 | 40.64936 | -73.77172 | 25 ft | 33 kts | 301° |
| 2026-05-06 23:14 | 40.65060 | -73.77445 | 25 ft | 35 kts | 300° |
| 2026-05-06 23:14 | 40.65187 | -73.77725 | 25 ft | 35 kts | 300° |
| 2026-05-06 23:14 | 40.65309 | -73.77997 | 25 ft | 33 kts | 301° |
| 2026-05-06 23:14 | 40.65416 | -73.78230 | 25 ft | 18 kts | 302° |
| 2026-05-06 23:15 | 40.65466 | -73.78328 | 25 ft | 7 kts | 323° |
| 2026-05-06 23:15 | 40.65530 | -73.78336 | 25 ft | 11 kts | 6° |
| 2026-05-06 23:15 | 40.65597 | -73.78353 | 25 ft | 8 kts | 316° |
| 2026-05-06 23:15 | 40.65636 | -73.78381 | 25 ft | 6 kts | 3° |
| 2026-05-06 23:16 | 40.65674 | -73.78361 | 25 ft | 8 kts | 18° |
| 2026-05-06 23:16 | 40.65783 | -73.78382 | 25 ft | 18 kts | 335° |
| 2026-05-06 23:16 | 40.65882 | -73.78440 | 25 ft | 14 kts | 336° |
| 2026-05-06 23:16 | 40.65941 | -73.78514 | 25 ft | 10 kts | 295° |
| 2026-05-06 23:17 | 40.65976 | -73.78580 | 25 ft | 7 kts | 336° |
| 2026-05-06 23:17 | 40.66025 | -73.78556 | 25 ft | 6 kts | 54° |
| 2026-05-06 23:17 | 40.66043 | -73.78507 | 25 ft | 5 kts | 62° |
| 2026-05-06 23:17 | 40.66065 | -73.78482 | 25 ft | 5 kts | 30° |
| 2026-05-06 23:18 | 40.66084 | -73.78468 | 25 ft | 0 kts | 30° |